sensor_id;sensor_type;location;lat;lon;timestamp;temperature;humidity
5554;DHT22;2800;49.528;8.666;2022-10-17T00:00:48;16.70;99.90
5554;DHT22;2800;49.528;8.666;2022-10-17T00:03:14;16.70;99.90
5554;DHT22;2800;49.528;8.666;2022-10-17T00:05:42;16.60;99.90
5554;DHT22;2800;49.528;8.666;2022-10-17T00:08:09;16.50;99.90
5554;DHT22;2800;49.528;8.666;2022-10-17T00:10:36;16.50;99.90
5554;DHT22;2800;49.528;8.666;2022-10-17T00:13:02;16.40;99.90
5554;DHT22;2800;49.528;8.666;2022-10-17T00:15:27;16.40;99.90
5554;DHT22;2800;49.528;8.666;2022-10-17T00:17:53;16.30;99.90
5554;DHT22;2800;49.528;8.666;2022-10-17T00:20:19;16.40;99.90
5554;DHT22;2800;49.528;8.666;2022-10-17T00:22:44;16.30;99.90
5554;DHT22;2800;49.528;8.666;2022-10-17T00:25:10;16.40;99.90
5554;DHT22;2800;49.528;8.666;2022-10-17T00:27:37;16.30;99.90
5554;DHT22;2800;49.528;8.666;2022-10-17T00:30:04;16.30;99.90
5554;DHT22;2800;49.528;8.666;2022-10-17T00:32:30;16.40;99.90
5554;DHT22;2800;49.528;8.666;2022-10-17T00:34:57;16.30;99.90
5554;DHT22;2800;49.528;8.666;2022-10-17T00:37:22;16.30;99.90
5554;DHT22;2800;49.528;8.666;2022-10-17T00:39:48;15.40;99.90
5554;DHT22;2800;49.528;8.666;2022-10-17T00:42:14;16.30;99.90
5554;DHT22;2800;49.528;8.666;2022-10-17T00:47:08;16.10;99.90
5554;DHT22;2800;49.528;8.666;2022-10-17T00:49:35;16.10;99.90
5554;DHT22;2800;49.528;8.666;2022-10-17T00:52:07;16.00;99.90
5554;DHT22;2800;49.528;8.666;2022-10-17T00:54:40;15.90;99.90
5554;DHT22;2800;49.528;8.666;2022-10-17T00:57:08;15.90;99.90
5554;DHT22;2800;49.528;8.666;2022-10-17T00:59:35;16.00;99.90
5554;DHT22;2800;49.528;8.666;2022-10-17T01:02:08;15.90;99.90
5554;DHT22;2800;49.528;8.666;2022-10-17T01:04:36;16.00;99.90
5554;DHT22;2800;49.528;8.666;2022-10-17T01:07:03;16.00;99.90
5554;DHT22;2800;49.528;8.666;2022-10-17T01:09:28;16.00;99.90
5554;DHT22;2800;49.528;8.666;2022-10-17T01:12:03;16.10;99.90
5554;DHT22;2800;49.528;8.666;2022-10-17T01:14:42;16.30;99.90
5554;DHT22;2800;49.528;8.666;2022-10-17T01:22:44;16.40;99.90
5554;DHT22;2800;49.528;8.666;2022-10-17T01:28:35;16.40;99.90
5554;DHT22;2800;49.528;8.666;2022-10-17T01:31:13;16.30;99.90
5554;DHT22;2800;49.528;8.666;2022-10-17T01:39:14;16.40;99.90
5554;DHT22;2800;49.528;8.666;2022-10-17T01:41:46;16.40;99.90
5554;DHT22;2800;49.528;8.666;2022-10-17T01:44:52;16.60;99.90
5554;DHT22;2800;49.528;8.666;2022-10-17T01:47:23;16.60;99.90
5554;DHT22;2800;49.528;8.666;2022-10-17T01:49:52;16.70;99.90
5554;DHT22;2800;49.528;8.666;2022-10-17T01:52:22;16.80;99.90
5554;DHT22;2800;49.528;8.666;2022-10-17T01:54:57;16.90;99.90
5554;DHT22;2800;49.528;8.666;2022-10-17T01:59:54;17.00;99.90
5554;DHT22;2800;49.528;8.666;2022-10-17T02:02:20;16.90;99.90
5554;DHT22;2800;49.528;8.666;2022-10-17T02:04:48;16.70;99.90
5554;DHT22;2800;49.528;8.666;2022-10-17T02:07:15;16.70;99.90
5554;DHT22;2800;49.528;8.666;2022-10-17T02:09:41;16.70;99.90
5554;DHT22;2800;49.528;8.666;2022-10-17T02:15:07;16.70;99.90
5554;DHT22;2800;49.528;8.666;2022-10-17T02:20:34;16.70;99.90
5554;DHT22;2800;49.528;8.666;2022-10-17T02:23:12;16.60;99.90
5554;DHT22;2800;49.528;8.666;2022-10-17T02:33:52;16.30;99.90
5554;DHT22;2800;49.528;8.666;2022-10-17T02:36:21;16.50;99.90
5554;DHT22;2800;49.528;8.666;2022-10-17T02:38:49;16.40;99.90
5554;DHT22;2800;49.528;8.666;2022-10-17T02:41:17;16.30;99.90
5554;DHT22;2800;49.528;8.666;2022-10-17T02:43:44;16.30;99.90
5554;DHT22;2800;49.528;8.666;2022-10-17T02:46:13;16.30;99.90
5554;DHT22;2800;49.528;8.666;2022-10-17T02:48:55;16.40;99.90
5554;DHT22;2800;49.528;8.666;2022-10-17T02:54:04;16.30;99.90
5554;DHT22;2800;49.528;8.666;2022-10-17T02:56:37;16.10;99.90
5554;DHT22;2800;49.528;8.666;2022-10-17T02:59:05;16.10;99.90
5554;DHT22;2800;49.528;8.666;2022-10-17T03:01:34;16.00;99.90
5554;DHT22;2800;49.528;8.666;2022-10-17T03:04:05;16.10;99.90
5554;DHT22;2800;49.528;8.666;2022-10-17T03:06:30;16.10;99.90
5554;DHT22;2800;49.528;8.666;2022-10-17T03:08:56;16.00;99.90
5554;DHT22;2800;49.528;8.666;2022-10-17T03:11:21;16.20;99.90
5554;DHT22;2800;49.528;8.666;2022-10-17T03:13:47;16.20;99.90
5554;DHT22;2800;49.528;8.666;2022-10-17T03:16:12;16.20;99.90
5554;DHT22;2800;49.528;8.666;2022-10-17T03:18:38;16.10;99.90
5554;DHT22;2800;49.528;8.666;2022-10-17T03:21:03;16.10;99.90
5554;DHT22;2800;49.528;8.666;2022-10-17T03:23:29;16.00;99.90
5554;DHT22;2800;49.528;8.666;2022-10-17T03:25:54;15.90;99.90
5554;DHT22;2800;49.528;8.666;2022-10-17T03:28:20;16.00;99.90
5554;DHT22;2800;49.528;8.666;2022-10-17T03:30:45;16.10;99.90
5554;DHT22;2800;49.528;8.666;2022-10-17T03:33:10;16.10;99.90
5554;DHT22;2800;49.528;8.666;2022-10-17T03:35:38;16.20;99.90
5554;DHT22;2800;49.528;8.666;2022-10-17T03:38:04;16.10;99.90
5554;DHT22;2800;49.528;8.666;2022-10-17T03:40:30;16.00;99.90
5554;DHT22;2800;49.528;8.666;2022-10-17T03:42:55;16.00;99.90
5554;DHT22;2800;49.528;8.666;2022-10-17T03:45:21;16.00;99.90
5554;DHT22;2800;49.528;8.666;2022-10-17T03:47:46;15.90;99.90
5554;DHT22;2800;49.528;8.666;2022-10-17T03:50:12;16.00;99.90
5554;DHT22;2800;49.528;8.666;2022-10-17T03:52:37;15.90;99.90
5554;DHT22;2800;49.528;8.666;2022-10-17T03:55:03;15.80;99.90
5554;DHT22;2800;49.528;8.666;2022-10-17T03:57:29;15.80;99.90
5554;DHT22;2800;49.528;8.666;2022-10-17T03:59:54;15.80;99.90
5554;DHT22;2800;49.528;8.666;2022-10-17T04:02:20;15.90;99.90
5554;DHT22;2800;49.528;8.666;2022-10-17T04:04:45;15.90;99.90
5554;DHT22;2800;49.528;8.666;2022-10-17T04:07:11;15.80;99.90
5554;DHT22;2800;49.528;8.666;2022-10-17T04:09:36;15.70;99.90
5554;DHT22;2800;49.528;8.666;2022-10-17T04:12:02;15.70;99.90
5554;DHT22;2800;49.528;8.666;2022-10-17T04:14:27;15.70;99.90
5554;DHT22;2800;49.528;8.666;2022-10-17T04:16:53;15.70;99.90
5554;DHT22;2800;49.528;8.666;2022-10-17T04:19:19;15.70;99.90
5554;DHT22;2800;49.528;8.666;2022-10-17T04:21:44;15.60;99.90
5554;DHT22;2800;49.528;8.666;2022-10-17T04:24:10;15.60;99.90
5554;DHT22;2800;49.528;8.666;2022-10-17T04:26:36;15.50;99.90
5554;DHT22;2800;49.528;8.666;2022-10-17T04:29:01;15.50;99.90
5554;DHT22;2800;49.528;8.666;2022-10-17T04:31:27;15.60;99.90
5554;DHT22;2800;49.528;8.666;2022-10-17T04:33:52;15.60;99.90
5554;DHT22;2800;49.528;8.666;2022-10-17T04:36:18;15.50;99.90
5554;DHT22;2800;49.528;8.666;2022-10-17T04:38:44;15.40;99.90
5554;DHT22;2800;49.528;8.666;2022-10-17T04:41:12;15.40;99.90
5554;DHT22;2800;49.528;8.666;2022-10-17T04:43:38;15.40;99.90
5554;DHT22;2800;49.528;8.666;2022-10-17T04:46:06;15.20;99.90
5554;DHT22;2800;49.528;8.666;2022-10-17T04:48:32;15.10;99.90
5554;DHT22;2800;49.528;8.666;2022-10-17T04:51:03;15.20;99.90
5554;DHT22;2800;49.528;8.666;2022-10-17T04:53:31;15.20;99.90
5554;DHT22;2800;49.528;8.666;2022-10-17T04:55:56;15.30;99.90
5554;DHT22;2800;49.528;8.666;2022-10-17T04:58:22;15.40;99.90
5554;DHT22;2800;49.528;8.666;2022-10-17T05:00:48;15.50;99.90
5554;DHT22;2800;49.528;8.666;2022-10-17T05:03:13;15.60;47.80
5554;DHT22;2800;49.528;8.666;2022-10-17T05:05:40;15.70;99.90
5554;DHT22;2800;49.528;8.666;2022-10-17T05:08:08;15.90;99.90
5554;DHT22;2800;49.528;8.666;2022-10-17T05:10:41;15.90;1.00
5554;DHT22;2800;49.528;8.666;2022-10-17T05:13:08;15.90;1.00
5554;DHT22;2800;49.528;8.666;2022-10-17T05:15:35;15.90;99.90
5554;DHT22;2800;49.528;8.666;2022-10-17T05:18:01;16.00;1.00
5554;DHT22;2800;49.528;8.666;2022-10-17T05:20:27;15.90;99.90
5554;DHT22;2800;49.528;8.666;2022-10-17T05:22:52;15.80;99.90
5554;DHT22;2800;49.528;8.666;2022-10-17T05:25:18;15.70;1.00
5554;DHT22;2800;49.528;8.666;2022-10-17T05:27:44;15.70;1.00
5554;DHT22;2800;49.528;8.666;2022-10-17T05:30:10;15.70;1.00
5554;DHT22;2800;49.528;8.666;2022-10-17T05:32:35;15.80;1.00
5554;DHT22;2800;49.528;8.666;2022-10-17T05:35:01;15.80;1.00
5554;DHT22;2800;49.528;8.666;2022-10-17T05:37:29;15.90;1.00
5554;DHT22;2800;49.528;8.666;2022-10-17T05:39:54;15.80;1.00
5554;DHT22;2800;49.528;8.666;2022-10-17T05:42:20;15.80;1.00
5554;DHT22;2800;49.528;8.666;2022-10-17T05:44:45;15.80;1.00
5554;DHT22;2800;49.528;8.666;2022-10-17T05:47:11;15.80;1.00
5554;DHT22;2800;49.528;8.666;2022-10-17T05:49:36;15.70;1.00
5554;DHT22;2800;49.528;8.666;2022-10-17T05:52:02;15.70;1.00
5554;DHT22;2800;49.528;8.666;2022-10-17T05:54:27;15.80;1.00
5554;DHT22;2800;49.528;8.666;2022-10-17T05:56:55;15.70;1.00
5554;DHT22;2800;49.528;8.666;2022-10-17T05:59:21;15.70;66.30
5554;DHT22;2800;49.528;8.666;2022-10-17T06:01:48;15.70;1.00
5554;DHT22;2800;49.528;8.666;2022-10-17T06:04:14;15.70;1.00
5554;DHT22;2800;49.528;8.666;2022-10-17T06:06:39;15.80;99.90
5554;DHT22;2800;49.528;8.666;2022-10-17T06:09:05;15.90;1.00
5554;DHT22;2800;49.528;8.666;2022-10-17T06:11:32;16.00;99.90
5554;DHT22;2800;49.528;8.666;2022-10-17T06:13:57;16.10;99.90
5554;DHT22;2800;49.528;8.666;2022-10-17T06:16:23;16.20;1.00
5554;DHT22;2800;49.528;8.666;2022-10-17T06:18:49;16.20;99.90
5554;DHT22;2800;49.528;8.666;2022-10-17T06:21:19;16.20;1.00
5554;DHT22;2800;49.528;8.666;2022-10-17T06:23:46;16.40;1.00
5554;DHT22;2800;49.528;8.666;2022-10-17T06:26:11;16.50;1.00
5554;DHT22;2800;49.528;8.666;2022-10-17T06:28:37;16.60;7.50
5554;DHT22;2800;49.528;8.666;2022-10-17T06:31:07;16.70;16.40
5554;DHT22;2800;49.528;8.666;2022-10-17T06:33:33;16.50;30.60
5554;DHT22;2800;49.528;8.666;2022-10-17T06:35:58;16.40;1.00
5554;DHT22;2800;49.528;8.666;2022-10-17T06:38:24;16.50;1.00
5554;DHT22;2800;49.528;8.666;2022-10-17T06:40:49;17.20;99.90
5554;DHT22;2800;49.528;8.666;2022-10-17T06:43:15;17.60;99.90
5554;DHT22;2800;49.528;8.666;2022-10-17T06:45:41;17.90;99.90
5554;DHT22;2800;49.528;8.666;2022-10-17T06:48:07;18.20;99.90
5554;DHT22;2800;49.528;8.666;2022-10-17T06:50:33;18.20;99.90
5554;DHT22;2800;49.528;8.666;2022-10-17T06:52:59;18.40;99.90
5554;DHT22;2800;49.528;8.666;2022-10-17T06:55:24;17.50;99.90
5554;DHT22;2800;49.528;8.666;2022-10-17T06:57:50;17.30;99.90
5554;DHT22;2800;49.528;8.666;2022-10-17T07:00:16;17.10;99.90
5554;DHT22;2800;49.528;8.666;2022-10-17T07:02:42;17.10;99.90
5554;DHT22;2800;49.528;8.666;2022-10-17T07:05:08;17.20;99.90
5554;DHT22;2800;49.528;8.666;2022-10-17T07:07:34;17.20;99.90
5554;DHT22;2800;49.528;8.666;2022-10-17T07:09:59;17.20;99.90
5554;DHT22;2800;49.528;8.666;2022-10-17T07:12:25;17.20;99.90
5554;DHT22;2800;49.528;8.666;2022-10-17T07:14:50;17.30;99.90
5554;DHT22;2800;49.528;8.666;2022-10-17T07:17:16;17.50;99.90
5554;DHT22;2800;49.528;8.666;2022-10-17T07:19:43;17.40;99.90
5554;DHT22;2800;49.528;8.666;2022-10-17T07:22:09;17.20;99.90
5554;DHT22;2800;49.528;8.666;2022-10-17T07:24:35;17.30;99.90
5554;DHT22;2800;49.528;8.666;2022-10-17T07:27:00;17.50;99.90
5554;DHT22;2800;49.528;8.666;2022-10-17T07:29:26;17.60;99.90
5554;DHT22;2800;49.528;8.666;2022-10-17T07:31:52;17.80;99.90
5554;DHT22;2800;49.528;8.666;2022-10-17T07:34:17;18.20;99.90
5554;DHT22;2800;49.528;8.666;2022-10-17T07:36:44;18.30;99.90
5554;DHT22;2800;49.528;8.666;2022-10-17T07:39:09;18.30;99.90
5554;DHT22;2800;49.528;8.666;2022-10-17T07:41:35;18.10;99.90
5554;DHT22;2800;49.528;8.666;2022-10-17T07:44:00;18.50;99.90
5554;DHT22;2800;49.528;8.666;2022-10-17T07:46:26;18.50;99.90
5554;DHT22;2800;49.528;8.666;2022-10-17T07:48:51;18.40;99.90
5554;DHT22;2800;49.528;8.666;2022-10-17T07:51:17;18.60;99.90
5554;DHT22;2800;49.528;8.666;2022-10-17T07:53:44;18.80;99.90
5554;DHT22;2800;49.528;8.666;2022-10-17T07:56:10;18.80;99.90
5554;DHT22;2800;49.528;8.666;2022-10-17T07:58:36;18.80;99.90
5554;DHT22;2800;49.528;8.666;2022-10-17T08:01:07;18.60;99.90
5554;DHT22;2800;49.528;8.666;2022-10-17T08:03:35;18.40;99.90
5554;DHT22;2800;49.528;8.666;2022-10-17T08:06:01;18.30;99.90
5554;DHT22;2800;49.528;8.666;2022-10-17T08:08:27;18.30;99.90
5554;DHT22;2800;49.528;8.666;2022-10-17T08:11:01;18.50;99.90
5554;DHT22;2800;49.528;8.666;2022-10-17T08:13:27;18.80;99.90
5554;DHT22;2800;49.528;8.666;2022-10-17T08:15:52;19.00;99.90
5554;DHT22;2800;49.528;8.666;2022-10-17T08:18:18;19.20;99.90
5554;DHT22;2800;49.528;8.666;2022-10-17T08:20:43;19.10;99.90
5554;DHT22;2800;49.528;8.666;2022-10-17T08:23:09;19.00;99.90
5554;DHT22;2800;49.528;8.666;2022-10-17T08:25:37;19.20;99.90
5554;DHT22;2800;49.528;8.666;2022-10-17T08:28:04;19.60;99.90
5554;DHT22;2800;49.528;8.666;2022-10-17T08:30:29;19.60;99.90
5554;DHT22;2800;49.528;8.666;2022-10-17T08:32:55;19.70;99.90
5554;DHT22;2800;49.528;8.666;2022-10-17T08:35:21;19.90;99.90
5554;DHT22;2800;49.528;8.666;2022-10-17T08:37:46;20.10;99.90
5554;DHT22;2800;49.528;8.666;2022-10-17T08:40:18;20.20;99.90
5554;DHT22;2800;49.528;8.666;2022-10-17T08:45:44;20.90;99.90
5554;DHT22;2800;49.528;8.666;2022-10-17T08:48:20;21.30;99.90
5554;DHT22;2800;49.528;8.666;2022-10-17T08:50:57;21.60;99.90
5554;DHT22;2800;49.528;8.666;2022-10-17T08:53:40;21.40;99.90
5554;DHT22;2800;49.528;8.666;2022-10-17T08:56:20;21.70;99.90
5554;DHT22;2800;49.528;8.666;2022-10-17T08:58:47;21.80;99.90
5554;DHT22;2800;49.528;8.666;2022-10-17T09:07:22;21.80;99.90
5554;DHT22;2800;49.528;8.666;2022-10-17T09:16:48;22.40;99.90
5554;DHT22;2800;49.528;8.666;2022-10-17T09:19:17;22.40;99.90
5554;DHT22;2800;49.528;8.666;2022-10-17T09:22:00;22.50;99.90
5554;DHT22;2800;49.528;8.666;2022-10-17T09:24:51;22.50;99.90
5554;DHT22;2800;49.528;8.666;2022-10-17T09:32:52;22.70;99.90
5554;DHT22;2800;49.528;8.666;2022-10-17T09:35:19;22.50;99.90
5554;DHT22;2800;49.528;8.666;2022-10-17T09:37:45;22.50;99.90
5554;DHT22;2800;49.528;8.666;2022-10-17T09:40:30;22.40;99.90
5554;DHT22;2800;49.528;8.666;2022-10-17T09:42:57;22.00;99.90
5554;DHT22;2800;49.528;8.666;2022-10-17T09:45:24;22.20;99.90
5554;DHT22;2800;49.528;8.666;2022-10-17T09:47:56;22.30;99.90
5554;DHT22;2800;49.528;8.666;2022-10-17T09:50:32;22.30;99.90
5554;DHT22;2800;49.528;8.666;2022-10-17T09:53:14;22.50;99.90
5554;DHT22;2800;49.528;8.666;2022-10-17T09:55:46;22.50;99.90
5554;DHT22;2800;49.528;8.666;2022-10-17T09:58:14;22.30;99.90
5554;DHT22;2800;49.528;8.666;2022-10-17T10:00:45;22.70;99.90
5554;DHT22;2800;49.528;8.666;2022-10-17T10:08:28;23.00;99.90
5554;DHT22;2800;49.528;8.666;2022-10-17T10:10:59;22.80;99.90
5554;DHT22;2800;49.528;8.666;2022-10-17T10:13:26;23.20;99.90
5554;DHT22;2800;49.528;8.666;2022-10-17T10:15:52;23.40;99.90
5554;DHT22;2800;49.528;8.666;2022-10-17T10:23:30;23.30;99.90
5554;DHT22;2800;49.528;8.666;2022-10-17T10:26:03;23.50;99.90
5554;DHT22;2800;49.528;8.666;2022-10-17T10:28:34;23.30;99.90
5554;DHT22;2800;49.528;8.666;2022-10-17T10:31:07;23.40;99.90
5554;DHT22;2800;49.528;8.666;2022-10-17T10:33:36;23.70;99.90
5554;DHT22;2800;49.528;8.666;2022-10-17T10:36:05;24.30;99.90
5554;DHT22;2800;49.528;8.666;2022-10-17T10:38:32;24.20;99.90
5554;DHT22;2800;49.528;8.666;2022-10-17T10:41:05;24.00;99.90
5554;DHT22;2800;49.528;8.666;2022-10-17T10:43:33;24.50;99.90
5554;DHT22;2800;49.528;8.666;2022-10-17T10:46:01;24.50;99.90
5554;DHT22;2800;49.528;8.666;2022-10-17T10:48:36;24.90;99.90
5554;DHT22;2800;49.528;8.666;2022-10-17T10:51:11;24.80;99.90
5554;DHT22;2800;49.528;8.666;2022-10-17T10:56:27;25.10;99.90
5554;DHT22;2800;49.528;8.666;2022-10-17T10:58:59;25.30;99.90
5554;DHT22;2800;49.528;8.666;2022-10-17T11:01:38;25.70;99.90
5554;DHT22;2800;49.528;8.666;2022-10-17T11:04:07;26.10;97.90
5554;DHT22;2800;49.528;8.666;2022-10-17T11:06:38;25.70;98.80
5554;DHT22;2800;49.528;8.666;2022-10-17T11:11:46;25.70;97.50
5554;DHT22;2800;49.528;8.666;2022-10-17T11:14:38;25.50;97.40
5554;DHT22;2800;49.528;8.666;2022-10-17T11:17:29;25.10;97.60
5554;DHT22;2800;49.528;8.666;2022-10-17T11:20:08;25.40;97.30
5554;DHT22;2800;49.528;8.666;2022-10-17T11:22:39;25.60;97.50
5554;DHT22;2800;49.528;8.666;2022-10-17T11:25:21;24.90;97.00
5554;DHT22;2800;49.528;8.666;2022-10-17T11:27:52;25.50;96.30
5554;DHT22;2800;49.528;8.666;2022-10-17T11:30:18;25.50;96.20
5554;DHT22;2800;49.528;8.666;2022-10-17T11:32:51;25.20;96.40
5554;DHT22;2800;49.528;8.666;2022-10-17T11:35:36;25.80;96.60
5554;DHT22;2800;49.528;8.666;2022-10-17T11:40:58;25.90;95.20
5554;DHT22;2800;49.528;8.666;2022-10-17T11:43:38;26.80;95.10
5554;DHT22;2800;49.528;8.666;2022-10-17T11:48:44;25.80;94.20
5554;DHT22;2800;49.528;8.666;2022-10-17T11:51:14;26.20;94.00
5554;DHT22;2800;49.528;8.666;2022-10-17T11:56:30;27.30;94.20
5554;DHT22;2800;49.528;8.666;2022-10-17T12:02:12;27.00;92.30
5554;DHT22;2800;49.528;8.666;2022-10-17T12:04:56;27.30;92.90
5554;DHT22;2800;49.528;8.666;2022-10-17T12:07:40;27.80;92.30
5554;DHT22;2800;49.528;8.666;2022-10-17T12:12:49;27.50;91.80
5554;DHT22;2800;49.528;8.666;2022-10-17T12:18:01;26.80;92.40
5554;DHT22;2800;49.528;8.666;2022-10-17T12:20:31;26.30;92.20
5554;DHT22;2800;49.528;8.666;2022-10-17T12:25:37;26.20;91.50
5554;DHT22;2800;49.528;8.666;2022-10-17T12:28:15;26.00;91.80
5554;DHT22;2800;49.528;8.666;2022-10-17T12:33:49;27.00;91.50
5554;DHT22;2800;49.528;8.666;2022-10-17T12:58:00;27.70;88.40
5554;DHT22;2800;49.528;8.666;2022-10-17T13:00:42;26.70;87.10
5554;DHT22;2800;49.528;8.666;2022-10-17T13:05:44;27.40;86.80
5554;DHT22;2800;49.528;8.666;2022-10-17T13:08:18;27.40;86.90
5554;DHT22;2800;49.528;8.666;2022-10-17T13:10:47;27.50;87.40
5554;DHT22;2800;49.528;8.666;2022-10-17T13:15:52;27.50;87.40
5554;DHT22;2800;49.528;8.666;2022-10-17T13:18:24;26.80;88.10
5554;DHT22;2800;49.528;8.666;2022-10-17T13:21:16;27.10;88.10
5554;DHT22;2800;49.528;8.666;2022-10-17T13:23:41;27.20;86.80
5554;DHT22;2800;49.528;8.666;2022-10-17T13:26:16;27.30;87.20
5554;DHT22;2800;49.528;8.666;2022-10-17T13:28:45;27.90;85.90
5554;DHT22;2800;49.528;8.666;2022-10-17T13:31:50;28.20;86.30
5554;DHT22;2800;49.528;8.666;2022-10-17T13:34:18;28.30;84.80
5554;DHT22;2800;49.528;8.666;2022-10-17T13:37:00;27.50;82.80
5554;DHT22;2800;49.528;8.666;2022-10-17T13:39:28;27.30;85.80
5554;DHT22;2800;49.528;8.666;2022-10-17T13:41:55;28.10;85.80
5554;DHT22;2800;49.528;8.666;2022-10-17T13:44:24;28.50;85.40
5554;DHT22;2800;49.528;8.666;2022-10-17T13:46:50;29.00;83.50
5554;DHT22;2800;49.528;8.666;2022-10-17T13:49:34;28.60;81.90
5554;DHT22;2800;49.528;8.666;2022-10-17T13:52:03;28.10;82.80
5554;DHT22;2800;49.528;8.666;2022-10-17T13:54:39;28.30;83.10
5554;DHT22;2800;49.528;8.666;2022-10-17T13:57:16;28.10;81.70
5554;DHT22;2800;49.528;8.666;2022-10-17T13:59:43;28.20;82.60
5554;DHT22;2800;49.528;8.666;2022-10-17T14:02:18;27.90;83.40
5554;DHT22;2800;49.528;8.666;2022-10-17T14:04:44;27.80;81.60
5554;DHT22;2800;49.528;8.666;2022-10-17T14:10:00;28.40;83.80
5554;DHT22;2800;49.528;8.666;2022-10-17T14:12:30;28.60;82.60
5554;DHT22;2800;49.528;8.666;2022-10-17T14:14:56;29.00;82.20
5554;DHT22;2800;49.528;8.666;2022-10-17T14:17:26;28.40;80.90
5554;DHT22;2800;49.528;8.666;2022-10-17T14:19:54;27.90;81.40
5554;DHT22;2800;49.528;8.666;2022-10-17T14:24:47;28.10;83.30
5554;DHT22;2800;49.528;8.666;2022-10-17T14:27:33;27.90;82.20
5554;DHT22;2800;49.528;8.666;2022-10-17T14:32:56;27.30;82.40
5554;DHT22;2800;49.528;8.666;2022-10-17T14:35:22;27.30;82.40
5554;DHT22;2800;49.528;8.666;2022-10-17T14:37:50;27.10;82.70
5554;DHT22;2800;49.528;8.666;2022-10-17T14:40:25;27.30;83.50
5554;DHT22;2800;49.528;8.666;2022-10-17T14:42:53;26.90;83.40
5554;DHT22;2800;49.528;8.666;2022-10-17T14:45:26;26.10;83.10
5554;DHT22;2800;49.528;8.666;2022-10-17T14:47:55;26.30;84.80
5554;DHT22;2800;49.528;8.666;2022-10-17T14:50:27;26.50;85.00
5554;DHT22;2800;49.528;8.666;2022-10-17T14:55:38;25.30;85.50
5554;DHT22;2800;49.528;8.666;2022-10-17T14:58:23;25.70;86.40
5554;DHT22;2800;49.528;8.666;2022-10-17T15:00:49;25.70;86.40
5554;DHT22;2800;49.528;8.666;2022-10-17T15:03:14;26.10;86.30
5554;DHT22;2800;49.528;8.666;2022-10-17T15:05:40;26.10;86.40
5554;DHT22;2800;49.528;8.666;2022-10-17T15:08:13;25.90;87.20
5554;DHT22;2800;49.528;8.666;2022-10-17T15:10:39;25.50;87.60
5554;DHT22;2800;49.528;8.666;2022-10-17T15:13:08;25.40;88.40
5554;DHT22;2800;49.528;8.666;2022-10-17T15:15:35;25.70;87.70
5554;DHT22;2800;49.528;8.666;2022-10-17T15:18:01;25.90;87.70
5554;DHT22;2800;49.528;8.666;2022-10-17T15:20:27;25.00;88.00
5554;DHT22;2800;49.528;8.666;2022-10-17T15:22:56;24.50;89.80
5554;DHT22;2800;49.528;8.666;2022-10-17T15:25:22;24.10;90.00
5554;DHT22;2800;49.528;8.666;2022-10-17T15:27:48;23.70;90.70
5554;DHT22;2800;49.528;8.666;2022-10-17T15:32:43;23.30;92.20
5554;DHT22;2800;49.528;8.666;2022-10-17T15:35:08;23.20;92.60
5554;DHT22;2800;49.528;8.666;2022-10-17T15:37:34;23.10;93.40
5554;DHT22;2800;49.528;8.666;2022-10-17T15:39:59;23.10;94.10
5554;DHT22;2800;49.528;8.666;2022-10-17T15:42:28;22.90;98.70
5554;DHT22;2800;49.528;8.666;2022-10-17T15:44:55;22.70;99.90
5554;DHT22;2800;49.528;8.666;2022-10-17T15:47:25;22.60;99.90
5554;DHT22;2800;49.528;8.666;2022-10-17T15:49:53;22.80;99.90
5554;DHT22;2800;49.528;8.666;2022-10-17T15:52:19;22.90;99.90
5554;DHT22;2800;49.528;8.666;2022-10-17T15:54:44;22.80;99.90
5554;DHT22;2800;49.528;8.666;2022-10-17T15:57:21;22.60;99.90
5554;DHT22;2800;49.528;8.666;2022-10-17T15:59:49;22.50;99.90
5554;DHT22;2800;49.528;8.666;2022-10-17T16:02:17;22.20;99.90
5554;DHT22;2800;49.528;8.666;2022-10-17T16:04:43;22.00;99.90
5554;DHT22;2800;49.528;8.666;2022-10-17T16:07:09;21.80;99.90
5554;DHT22;2800;49.528;8.666;2022-10-17T16:09:34;21.80;99.90
5554;DHT22;2800;49.528;8.666;2022-10-17T16:12:03;21.70;99.90
5554;DHT22;2800;49.528;8.666;2022-10-17T16:14:29;21.50;99.90
5554;DHT22;2800;49.528;8.666;2022-10-17T16:16:57;21.40;99.90
5554;DHT22;2800;49.528;8.666;2022-10-17T16:19:23;21.30;99.90
5554;DHT22;2800;49.528;8.666;2022-10-17T16:21:51;21.10;99.90
5554;DHT22;2800;49.528;8.666;2022-10-17T16:24:17;21.00;99.90
5554;DHT22;2800;49.528;8.666;2022-10-17T16:26:43;20.80;99.90
5554;DHT22;2800;49.528;8.666;2022-10-17T16:29:08;20.60;99.90
5554;DHT22;2800;49.528;8.666;2022-10-17T16:31:35;20.50;99.90
5554;DHT22;2800;49.528;8.666;2022-10-17T16:34:03;20.30;99.90
5554;DHT22;2800;49.528;8.666;2022-10-17T16:36:29;20.30;99.90
5554;DHT22;2800;49.528;8.666;2022-10-17T16:38:54;20.20;99.90
5554;DHT22;2800;49.528;8.666;2022-10-17T16:41:24;20.10;99.90
5554;DHT22;2800;49.528;8.666;2022-10-17T16:43:51;20.00;1.00
5554;DHT22;2800;49.528;8.666;2022-10-17T16:46:18;19.90;1.00
5554;DHT22;2800;49.528;8.666;2022-10-17T16:48:44;19.70;90.60
5554;DHT22;2800;49.528;8.666;2022-10-17T16:51:11;19.50;1.00
5554;DHT22;2800;49.528;8.666;2022-10-17T16:53:37;19.50;99.90
5554;DHT22;2800;49.528;8.666;2022-10-17T16:56:05;19.50;99.90
5554;DHT22;2800;49.528;8.666;2022-10-17T16:58:31;19.40;1.00
5554;DHT22;2800;49.528;8.666;2022-10-17T17:01:05;19.40;1.00
5554;DHT22;2800;49.528;8.666;2022-10-17T17:03:36;19.30;1.00
5554;DHT22;2800;49.528;8.666;2022-10-17T17:06:03;19.20;1.00
5554;DHT22;2800;49.528;8.666;2022-10-17T17:08:28;19.30;1.00
5554;DHT22;2800;49.528;8.666;2022-10-17T17:10:54;19.70;1.00
5554;DHT22;2800;49.528;8.666;2022-10-17T17:13:20;19.20;1.00
5554;DHT22;2800;49.528;8.666;2022-10-17T17:15:45;19.00;99.90
5554;DHT22;2800;49.528;8.666;2022-10-17T17:18:12;19.00;99.90
5554;DHT22;2800;49.528;8.666;2022-10-17T17:20:39;18.90;1.00
5554;DHT22;2800;49.528;8.666;2022-10-17T17:23:06;18.70;1.00
5554;DHT22;2800;49.528;8.666;2022-10-17T17:25:33;18.70;1.00
5554;DHT22;2800;49.528;8.666;2022-10-17T17:28:01;18.80;1.00
5554;DHT22;2800;49.528;8.666;2022-10-17T17:30:27;18.80;1.00
5554;DHT22;2800;49.528;8.666;2022-10-17T17:32:54;18.80;99.90
5554;DHT22;2800;49.528;8.666;2022-10-17T17:35:20;18.70;1.00
5554;DHT22;2800;49.528;8.666;2022-10-17T17:37:46;18.70;46.50
5554;DHT22;2800;49.528;8.666;2022-10-17T17:40:11;18.70;1.00
5554;DHT22;2800;49.528;8.666;2022-10-17T17:42:37;18.70;1.00
5554;DHT22;2800;49.528;8.666;2022-10-17T17:45:03;18.70;1.00
5554;DHT22;2800;49.528;8.666;2022-10-17T17:47:28;18.50;1.00
5554;DHT22;2800;49.528;8.666;2022-10-17T17:49:54;18.50;1.00
5554;DHT22;2800;49.528;8.666;2022-10-17T17:52:19;18.40;99.90
5554;DHT22;2800;49.528;8.666;2022-10-17T17:54:45;18.40;99.90
5554;DHT22;2800;49.528;8.666;2022-10-17T17:57:10;18.30;99.90
5554;DHT22;2800;49.528;8.666;2022-10-17T17:59:37;18.30;99.90
5554;DHT22;2800;49.528;8.666;2022-10-17T18:02:03;18.40;99.90
5554;DHT22;2800;49.528;8.666;2022-10-17T18:04:30;18.40;99.90
5554;DHT22;2800;49.528;8.666;2022-10-17T18:06:56;18.40;99.90
5554;DHT22;2800;49.528;8.666;2022-10-17T18:09:21;18.40;99.90
5554;DHT22;2800;49.528;8.666;2022-10-17T18:11:48;18.30;99.90
5554;DHT22;2800;49.528;8.666;2022-10-17T18:14:13;18.20;99.90
5554;DHT22;2800;49.528;8.666;2022-10-17T18:16:39;18.10;99.90
5554;DHT22;2800;49.528;8.666;2022-10-17T18:19:06;18.40;99.90
5554;DHT22;2800;49.528;8.666;2022-10-17T18:21:34;18.40;99.90
5554;DHT22;2800;49.528;8.666;2022-10-17T18:24:00;18.50;99.90
5554;DHT22;2800;49.528;8.666;2022-10-17T18:26:26;18.60;99.90
5554;DHT22;2800;49.528;8.666;2022-10-17T18:28:52;18.50;99.90